Kansai — JD3272 — position and weather

sailwx.info

Track history (hours):
 
Tides and Currents Weather Stations Pressure Air Temp Water Temp Dewpoint Dewpoint Depression Visibility Wind Speed Wind Dir Waves Ship Positions

Kansai

Last reported at 2014-Jul-26 07:33 UTC. Time now 2014-Jul-28 16:27 UTC.
Position N 34°03' E 135°01'.

Length 73 m; draft 4.2 m.

Type: Cargo ship. MMSI: 431003134.

Date/timePositionNaut miles runAvg speedWind from/ knotsBaromVisibWave heightAir tempDewpointWater temp
2014-Jul-26 07:33N 34°03' E 135°01'1110.9
2014-Jul-26 06:31N 34°14' E 134°59'1010.7
2014-Jul-26 05:33N 34°24' E 135°00'1111.0
2014-Jul-26 04:34N 34°35' E 135°03'1212.0
2014-Jul-26 03:33N 34°41' E 134°50'1 0.1
2014-Jul-25 13:32N 34°42' E 134°49'1 0.2
2014-Jul-25 04:19N 34°41' E 134°50'7 9.2
2014-Jul-25 03:33N 34°38' E 134°58'8 8.2
2014-Jul-25 02:33N 34°32' E 135°05'163 7.7
2014-Jul-24 05:24N 34°42' E 138°23'31 5.3
2014-Jul-23 23:32N 35°09' E 138°41'34 1.0
2014-Jul-22 14:30N 34°57' E 139°21'9 9.7
2014-Jul-22 13:33N 35°02' E 139°30'1010.3
2014-Jul-22 12:33N 35°07' E 139°41'1010.3
2014-Jul-22 11:33N 35°17' E 139°45'9 9.3
2014-Jul-22 10:33N 35°26' E 139°46'1110.5
2014-Jul-22 09:34N 35°33' E 139°55'8 7.8
2014-Jul-22 08:33N 35°41' E 139°57'0 0.0
2014-Jul-22 07:32N 35°41' E 139°57'0 0.0
2014-Jul-22 06:34N 35°41' E 139°57'0 0.0
2014-Jul-22 05:34N 35°41' E 139°57'0 0.0
2014-Jul-22 04:33N 35°41' E 139°57'0 0.0
2014-Jul-22 03:33N 35°41' E 139°57'0 0.0
2014-Jul-22 02:33N 35°41' E 139°57'0 0.0
2014-Jul-22 01:33N 35°41' E 139°57'0 0.0
2014-Jul-22 00:33N 35°41' E 139°57'0 0.0
2014-Jul-21 23:34N 35°41' E 139°57'0 0.0
2014-Jul-21 22:33N 35°41' E 139°57'0 0.0
2014-Jul-21 21:34N 35°41' E 139°57'0 0.0
2014-Jul-21 20:33N 35°41' E 139°57'0 0.0
2014-Jul-21 20:18N 35°41' E 139°57'0 0.0
2014-Jul-21 19:34N 35°41' E 139°57'0 0.0
2014-Jul-21 18:34N 35°41' E 139°57'0 0.0
2014-Jul-21 17:33N 35°41' E 139°57'0 0.0
2014-Jul-21 16:34N 35°41' E 139°57'0 0.0
2014-Jul-21 15:33N 35°41' E 139°57'0 0.0
2014-Jul-21 14:33N 35°41' E 139°57'0 0.0
2014-Jul-21 13:33N 35°41' E 139°57'0 0.0
2014-Jul-21 12:33N 35°41' E 139°57'0 0.0
2014-Jul-21 11:33N 35°41' E 139°57'0 0.0
2014-Jul-21 10:33N 35°41' E 139°57'0 0.0
2014-Jul-21 09:33N 35°41' E 139°57'0 0.0
2014-Jul-21 08:33N 35°41' E 139°57'0 0.0
2014-Jul-21 07:33N 35°41' E 139°57'0 0.0
2014-Jul-21 06:33N 35°41' E 139°57'0 0.0
2014-Jul-21 05:33N 35°41' E 139°57'0 0.0
2014-Jul-21 04:33N 35°41' E 139°57'1 1.3
2014-Jul-21 03:33N 35°40' E 139°58'7 7.2
2014-Jul-21 02:33N 35°33' E 139°54'1010.4
2014-Jul-21 01:33N 35°25' E 139°47'10 9.6
2014-Jul-21 00:33N 35°15' E 139°47'1110.5
2014-Jul-20 23:33N 35°05' E 139°44'242 9.0
2014-Jul-19 20:33N 34°06' E 134°59'1211.0
2014-Jul-19 19:28N 34°17' E 134°58'1010.7
2014-Jul-19 18:33N 34°27' E 135°01'9 9.2
2014-Jul-19 17:33N 34°36' E 135°02'11 8.3
2014-Jul-19 16:11N 34°40' E 134°49'4 0.1
2014-Jul-17 23:13N 34°37' E 134°53'710.3
2014-Jul-17 22:32N 34°37' E 135°02'7 7.1
2014-Jul-17 21:33N 34°38' E 135°10'8 7.6
2014-Jul-17 20:33N 34°31' E 135°06'  
Track history (hours):
 
Tides and Currents Weather Stations Pressure Air Temp Water Temp Dewpoint Dewpoint Depression Visibility Wind Speed Wind Dir Waves Ship Positions

Kansai

Last reported at 2014-Jul-26 07:33 UTC. Time now 2014-Jul-28 16:27 UTC.
Position N 34°03' E 135°01'.

Length 73 m; draft 4.2 m.

Type: Cargo ship. MMSI: 431003134.

Date/timePositionNaut miles runAvg speedWind from/ knotsBaromVisibWave heightAir tempDewpointWater temp
2014-Jul-26 07:33N 34°03' E 135°01'1110.9
2014-Jul-26 06:31N 34°14' E 134°59'1010.7
2014-Jul-26 05:33N 34°24' E 135°00'1111.0
2014-Jul-26 04:34N 34°35' E 135°03'1212.0
2014-Jul-26 03:33N 34°41' E 134°50'1 0.1
2014-Jul-25 13:32N 34°42' E 134°49'1 0.2
2014-Jul-25 04:19N 34°41' E 134°50'7 9.2
2014-Jul-25 03:33N 34°38' E 134°58'8 8.2
2014-Jul-25 02:33N 34°32' E 135°05'163 7.7
2014-Jul-24 05:24N 34°42' E 138°23'31 5.3
2014-Jul-23 23:32N 35°09' E 138°41'34 1.0
2014-Jul-22 14:30N 34°57' E 139°21'9 9.7
2014-Jul-22 13:33N 35°02' E 139°30'1010.3
2014-Jul-22 12:33N 35°07' E 139°41'1010.3
2014-Jul-22 11:33N 35°17' E 139°45'9 9.3
2014-Jul-22 10:33N 35°26' E 139°46'1110.5
2014-Jul-22 09:34N 35°33' E 139°55'8 7.8
2014-Jul-22 08:33N 35°41' E 139°57'0 0.0
2014-Jul-22 07:32N 35°41' E 139°57'0 0.0
2014-Jul-22 06:34N 35°41' E 139°57'0 0.0
2014-Jul-22 05:34N 35°41' E 139°57'0 0.0
2014-Jul-22 04:33N 35°41' E 139°57'0 0.0
2014-Jul-22 03:33N 35°41' E 139°57'0 0.0
2014-Jul-22 02:33N 35°41' E 139°57'0 0.0
2014-Jul-22 01:33N 35°41' E 139°57'0 0.0
2014-Jul-22 00:33N 35°41' E 139°57'0 0.0
2014-Jul-21 23:34N 35°41' E 139°57'0 0.0
2014-Jul-21 22:33N 35°41' E 139°57'0 0.0
2014-Jul-21 21:34N 35°41' E 139°57'0 0.0
2014-Jul-21 20:33N 35°41' E 139°57'0 0.0
2014-Jul-21 20:18N 35°41' E 139°57'0 0.0
2014-Jul-21 19:34N 35°41' E 139°57'0 0.0
2014-Jul-21 18:34N 35°41' E 139°57'0 0.0
2014-Jul-21 17:33N 35°41' E 139°57'0 0.0
2014-Jul-21 16:34N 35°41' E 139°57'0 0.0
2014-Jul-21 15:33N 35°41' E 139°57'0 0.0
2014-Jul-21 14:33N 35°41' E 139°57'0 0.0
2014-Jul-21 13:33N 35°41' E 139°57'0 0.0
2014-Jul-21 12:33N 35°41' E 139°57'0 0.0
2014-Jul-21 11:33N 35°41' E 139°57'0 0.0
2014-Jul-21 10:33N 35°41' E 139°57'0 0.0
2014-Jul-21 09:33N 35°41' E 139°57'0 0.0
2014-Jul-21 08:33N 35°41' E 139°57'0 0.0
2014-Jul-21 07:33N 35°41' E 139°57'0 0.0
2014-Jul-21 06:33N 35°41' E 139°57'0 0.0
2014-Jul-21 05:33N 35°41' E 139°57'0 0.0
2014-Jul-21 04:33N 35°41' E 139°57'1 1.3
2014-Jul-21 03:33N 35°40' E 139°58'7 7.2
2014-Jul-21 02:33N 35°33' E 139°54'1010.4
2014-Jul-21 01:33N 35°25' E 139°47'10 9.6
2014-Jul-21 00:33N 35°15' E 139°47'1110.5
2014-Jul-20 23:33N 35°05' E 139°44'242 9.0
2014-Jul-19 20:33N 34°06' E 134°59'1211.0
2014-Jul-19 19:28N 34°17' E 134°58'1010.7
2014-Jul-19 18:33N 34°27' E 135°01'9 9.2
2014-Jul-19 17:33N 34°36' E 135°02'11 8.3
2014-Jul-19 16:11N 34°40' E 134°49'4 0.1
2014-Jul-17 23:13N 34°37' E 134°53'710.3
2014-Jul-17 22:32N 34°37' E 135°02'7 7.1
2014-Jul-17 21:33N 34°38' E 135°10'8 7.6
2014-Jul-17 20:33N 34°31' E 135°06'  

Dump ship's entire track history